sensor_id;sensor_type;location;lat;lon;timestamp;P1;durP1;ratioP1;P2;durP2;ratioP2
19374;SDS011;9823;50.936;4.046;2022-08-01T00:01:31;5.17;;;2.70;;
19374;SDS011;9823;50.936;4.046;2022-08-01T00:03:57;4.30;;;2.97;;
19374;SDS011;9823;50.936;4.046;2022-08-01T00:06:23;5.97;;;3.17;;
19374;SDS011;9823;50.936;4.046;2022-08-01T00:08:51;8.37;;;3.27;;
19374;SDS011;9823;50.936;4.046;2022-08-01T00:11:17;4.57;;;3.00;;
19374;SDS011;9823;50.936;4.046;2022-08-01T00:13:45;7.43;;;3.77;;
19374;SDS011;9823;50.936;4.046;2022-08-01T00:16:11;7.63;;;3.50;;
19374;SDS011;9823;50.936;4.046;2022-08-01T00:18:37;7.03;;;3.83;;
19374;SDS011;9823;50.936;4.046;2022-08-01T00:21:03;6.63;;;3.50;;
19374;SDS011;9823;50.936;4.046;2022-08-01T00:23:30;9.63;;;3.50;;
19374;SDS011;9823;50.936;4.046;2022-08-01T00:25:56;7.97;;;3.50;;
19374;SDS011;9823;50.936;4.046;2022-08-01T00:28:22;6.73;;;3.57;;
19374;SDS011;9823;50.936;4.046;2022-08-01T00:30:48;7.27;;;3.67;;
19374;SDS011;9823;50.936;4.046;2022-08-01T00:33:14;6.73;;;3.93;;
19374;SDS011;9823;50.936;4.046;2022-08-01T00:35:40;7.37;;;4.70;;
19374;SDS011;9823;50.936;4.046;2022-08-01T00:38:09;12.20;;;4.73;;
19374;SDS011;9823;50.936;4.046;2022-08-01T00:40:38;10.47;;;4.67;;
19374;SDS011;9823;50.936;4.046;2022-08-01T00:43:04;7.67;;;4.50;;
19374;SDS011;9823;50.936;4.046;2022-08-01T00:45:33;9.97;;;5.10;;
19374;SDS011;9823;50.936;4.046;2022-08-01T00:48:01;10.00;;;4.87;;
19374;SDS011;9823;50.936;4.046;2022-08-01T00:50:29;9.70;;;4.80;;
19374;SDS011;9823;50.936;4.046;2022-08-01T00:52:56;14.17;;;5.80;;
19374;SDS011;9823;50.936;4.046;2022-08-01T00:55:23;15.53;;;6.80;;
19374;SDS011;9823;50.936;4.046;2022-08-01T00:57:49;11.97;;;5.13;;
19374;SDS011;9823;50.936;4.046;2022-08-01T01:00:16;12.17;;;6.00;;
19374;SDS011;9823;50.936;4.046;2022-08-01T01:02:42;9.93;;;5.47;;
19374;SDS011;9823;50.936;4.046;2022-08-01T01:05:08;13.53;;;6.00;;
19374;SDS011;9823;50.936;4.046;2022-08-01T01:13:06;14.63;;;6.43;;
19374;SDS011;9823;50.936;4.046;2022-08-01T01:18:11;17.07;;;6.80;;
19374;SDS011;9823;50.936;4.046;2022-08-01T01:20:41;22.93;;;7.57;;
19374;SDS011;9823;50.936;4.046;2022-08-01T01:23:14;20.90;;;8.40;;
19374;SDS011;9823;50.936;4.046;2022-08-01T01:28:27;17.57;;;7.33;;
19374;SDS011;9823;50.936;4.046;2022-08-01T01:30:55;19.33;;;7.27;;
19374;SDS011;9823;50.936;4.046;2022-08-01T01:33:23;19.23;;;8.57;;
19374;SDS011;9823;50.936;4.046;2022-08-01T01:35:56;20.07;;;8.43;;
19374;SDS011;9823;50.936;4.046;2022-08-01T01:38:25;20.63;;;8.70;;
19374;SDS011;9823;50.936;4.046;2022-08-01T01:40:52;19.60;;;9.03;;
19374;SDS011;9823;50.936;4.046;2022-08-01T01:43:19;19.60;;;8.40;;
19374;SDS011;9823;50.936;4.046;2022-08-01T01:45:47;20.93;;;8.37;;
19374;SDS011;9823;50.936;4.046;2022-08-01T01:48:14;16.80;;;9.00;;
19374;SDS011;9823;50.936;4.046;2022-08-01T01:50:44;20.03;;;8.37;;
19374;SDS011;9823;50.936;4.046;2022-08-01T01:53:14;18.07;;;8.77;;
19374;SDS011;9823;50.936;4.046;2022-08-01T01:55:41;22.43;;;8.43;;
19374;SDS011;9823;50.936;4.046;2022-08-01T01:58:08;19.03;;;9.53;;
19374;SDS011;9823;50.936;4.046;2022-08-01T02:00:37;17.20;;;7.90;;
19374;SDS011;9823;50.936;4.046;2022-08-01T02:03:03;17.47;;;8.00;;
19374;SDS011;9823;50.936;4.046;2022-08-01T02:05:31;20.10;;;8.77;;
19374;SDS011;9823;50.936;4.046;2022-08-01T02:07:59;16.20;;;8.20;;
19374;SDS011;9823;50.936;4.046;2022-08-01T02:10:26;20.93;;;8.70;;
19374;SDS011;9823;50.936;4.046;2022-08-01T02:12:52;20.00;;;8.60;;
19374;SDS011;9823;50.936;4.046;2022-08-01T02:15:19;23.33;;;9.10;;
19374;SDS011;9823;50.936;4.046;2022-08-01T02:17:46;19.20;;;9.17;;
19374;SDS011;9823;50.936;4.046;2022-08-01T02:20:13;19.90;;;9.43;;
19374;SDS011;9823;50.936;4.046;2022-08-01T02:22:42;20.90;;;10.20;;
19374;SDS011;9823;50.936;4.046;2022-08-01T02:25:15;19.80;;;10.70;;
19374;SDS011;9823;50.936;4.046;2022-08-01T02:27:57;21.40;;;9.87;;
19374;SDS011;9823;50.936;4.046;2022-08-01T02:30:26;22.50;;;11.00;;
19374;SDS011;9823;50.936;4.046;2022-08-01T02:35:57;24.43;;;12.13;;
19374;SDS011;9823;50.936;4.046;2022-08-01T02:38:24;21.97;;;12.40;;
19374;SDS011;9823;50.936;4.046;2022-08-01T02:40:54;23.27;;;11.70;;
19374;SDS011;9823;50.936;4.046;2022-08-01T02:43:24;26.53;;;13.03;;
19374;SDS011;9823;50.936;4.046;2022-08-01T02:45:54;28.53;;;13.63;;
19374;SDS011;9823;50.936;4.046;2022-08-01T02:48:24;27.50;;;13.97;;
19374;SDS011;9823;50.936;4.046;2022-08-01T02:50:55;27.67;;;13.23;;
19374;SDS011;9823;50.936;4.046;2022-08-01T02:53:22;31.23;;;15.70;;
19374;SDS011;9823;50.936;4.046;2022-08-01T02:55:48;32.00;;;15.57;;
19374;SDS011;9823;50.936;4.046;2022-08-01T02:58:15;26.97;;;15.63;;
19374;SDS011;9823;50.936;4.046;2022-08-01T03:00:45;37.73;;;17.00;;
19374;SDS011;9823;50.936;4.046;2022-08-01T03:03:13;31.33;;;16.23;;
19374;SDS011;9823;50.936;4.046;2022-08-01T03:05:43;31.17;;;15.73;;
19374;SDS011;9823;50.936;4.046;2022-08-01T03:08:09;30.70;;;16.70;;
19374;SDS011;9823;50.936;4.046;2022-08-01T03:10:38;26.53;;;15.80;;
19374;SDS011;9823;50.936;4.046;2022-08-01T03:13:06;24.43;;;12.73;;
19374;SDS011;9823;50.936;4.046;2022-08-01T03:15:36;21.37;;;9.57;;
19374;SDS011;9823;50.936;4.046;2022-08-01T03:18:03;31.47;;;14.60;;
19374;SDS011;9823;50.936;4.046;2022-08-01T03:20:32;23.53;;;10.57;;
19374;SDS011;9823;50.936;4.046;2022-08-01T03:22:59;30.23;;;14.90;;
19374;SDS011;9823;50.936;4.046;2022-08-01T03:25:27;31.57;;;14.00;;
19374;SDS011;9823;50.936;4.046;2022-08-01T03:27:54;33.60;;;15.77;;
19374;SDS011;9823;50.936;4.046;2022-08-01T03:30:30;33.27;;;18.03;;
19374;SDS011;9823;50.936;4.046;2022-08-01T03:32:58;43.97;;;19.00;;
19374;SDS011;9823;50.936;4.046;2022-08-01T03:35:30;35.57;;;19.17;;
19374;SDS011;9823;50.936;4.046;2022-08-01T03:37:57;38.77;;;19.43;;
19374;SDS011;9823;50.936;4.046;2022-08-01T03:40:40;36.63;;;17.13;;
19374;SDS011;9823;50.936;4.046;2022-08-01T03:43:10;32.73;;;16.83;;
19374;SDS011;9823;50.936;4.046;2022-08-01T03:45:46;32.53;;;17.77;;
19374;SDS011;9823;50.936;4.046;2022-08-01T03:48:16;33.87;;;16.57;;
19374;SDS011;9823;50.936;4.046;2022-08-01T03:50:45;35.47;;;16.80;;
19374;SDS011;9823;50.936;4.046;2022-08-01T03:53:14;31.17;;;15.87;;
19374;SDS011;9823;50.936;4.046;2022-08-01T03:55:42;31.53;;;16.83;;
19374;SDS011;9823;50.936;4.046;2022-08-01T03:58:09;37.60;;;17.40;;
19374;SDS011;9823;50.936;4.046;2022-08-01T04:00:38;31.90;;;17.13;;
19374;SDS011;9823;50.936;4.046;2022-08-01T04:03:07;32.30;;;17.00;;
19374;SDS011;9823;50.936;4.046;2022-08-01T04:05:34;34.47;;;17.47;;
19374;SDS011;9823;50.936;4.046;2022-08-01T04:08:00;28.37;;;15.87;;
19374;SDS011;9823;50.936;4.046;2022-08-01T04:10:30;30.37;;;16.43;;
19374;SDS011;9823;50.936;4.046;2022-08-01T04:12:58;32.27;;;16.13;;
19374;SDS011;9823;50.936;4.046;2022-08-01T04:15:27;26.20;;;15.50;;
19374;SDS011;9823;50.936;4.046;2022-08-01T04:17:53;25.07;;;14.83;;
19374;SDS011;9823;50.936;4.046;2022-08-01T04:20:19;27.17;;;14.47;;
19374;SDS011;9823;50.936;4.046;2022-08-01T04:22:50;26.93;;;13.27;;
19374;SDS011;9823;50.936;4.046;2022-08-01T04:25:24;23.83;;;12.53;;
19374;SDS011;9823;50.936;4.046;2022-08-01T04:27:51;23.30;;;12.13;;
19374;SDS011;9823;50.936;4.046;2022-08-01T04:30:22;26.70;;;13.50;;
19374;SDS011;9823;50.936;4.046;2022-08-01T04:32:52;22.37;;;11.43;;
19374;SDS011;9823;50.936;4.046;2022-08-01T04:35:19;17.60;;;8.97;;
19374;SDS011;9823;50.936;4.046;2022-08-01T04:37:46;16.50;;;9.30;;
19374;SDS011;9823;50.936;4.046;2022-08-01T04:40:13;19.40;;;9.80;;
19374;SDS011;9823;50.936;4.046;2022-08-01T04:42:40;15.47;;;7.77;;
19374;SDS011;9823;50.936;4.046;2022-08-01T04:45:06;17.13;;;8.07;;
19374;SDS011;9823;50.936;4.046;2022-08-01T04:47:37;14.77;;;7.20;;
19374;SDS011;9823;50.936;4.046;2022-08-01T04:50:08;13.63;;;7.70;;
19374;SDS011;9823;50.936;4.046;2022-08-01T04:52:35;14.93;;;7.67;;
19374;SDS011;9823;50.936;4.046;2022-08-01T04:55:04;14.57;;;7.60;;
19374;SDS011;9823;50.936;4.046;2022-08-01T04:57:32;10.87;;;6.60;;
19374;SDS011;9823;50.936;4.046;2022-08-01T04:59:59;12.27;;;6.53;;
19374;SDS011;9823;50.936;4.046;2022-08-01T05:02:27;11.10;;;6.20;;
19374;SDS011;9823;50.936;4.046;2022-08-01T05:04:56;10.67;;;6.27;;
19374;SDS011;9823;50.936;4.046;2022-08-01T05:07:22;11.83;;;6.17;;
19374;SDS011;9823;50.936;4.046;2022-08-01T05:09:48;12.30;;;5.67;;
19374;SDS011;9823;50.936;4.046;2022-08-01T05:12:15;12.73;;;6.07;;
19374;SDS011;9823;50.936;4.046;2022-08-01T05:14:44;13.47;;;5.67;;
19374;SDS011;9823;50.936;4.046;2022-08-01T05:17:10;14.73;;;6.00;;
19374;SDS011;9823;50.936;4.046;2022-08-01T05:19:37;10.63;;;6.50;;
19374;SDS011;9823;50.936;4.046;2022-08-01T05:22:04;12.03;;;6.10;;
19374;SDS011;9823;50.936;4.046;2022-08-01T05:24:34;9.60;;;5.30;;
19374;SDS011;9823;50.936;4.046;2022-08-01T05:27:07;10.53;;;5.80;;
19374;SDS011;9823;50.936;4.046;2022-08-01T05:29:34;11.00;;;5.90;;
19374;SDS011;9823;50.936;4.046;2022-08-01T05:32:00;11.37;;;6.00;;
19374;SDS011;9823;50.936;4.046;2022-08-01T05:34:27;10.43;;;6.53;;
19374;SDS011;9823;50.936;4.046;2022-08-01T05:36:53;12.73;;;6.80;;
19374;SDS011;9823;50.936;4.046;2022-08-01T05:39:19;13.93;;;6.63;;
19374;SDS011;9823;50.936;4.046;2022-08-01T05:41:45;10.83;;;6.80;;
19374;SDS011;9823;50.936;4.046;2022-08-01T05:44:13;12.00;;;5.37;;
19374;SDS011;9823;50.936;4.046;2022-08-01T05:46:42;11.77;;;4.77;;
19374;SDS011;9823;50.936;4.046;2022-08-01T05:49:11;12.17;;;6.17;;
19374;SDS011;9823;50.936;4.046;2022-08-01T05:51:39;11.57;;;6.37;;
19374;SDS011;9823;50.936;4.046;2022-08-01T05:54:05;10.40;;;5.63;;
19374;SDS011;9823;50.936;4.046;2022-08-01T05:56:34;14.20;;;7.50;;
19374;SDS011;9823;50.936;4.046;2022-08-01T05:59:00;11.13;;;6.10;;
19374;SDS011;9823;50.936;4.046;2022-08-01T06:01:26;21.17;;;8.73;;
19374;SDS011;9823;50.936;4.046;2022-08-01T06:03:52;10.37;;;6.10;;
19374;SDS011;9823;50.936;4.046;2022-08-01T06:06:19;10.13;;;6.03;;
19374;SDS011;9823;50.936;4.046;2022-08-01T06:08:48;10.93;;;5.00;;
19374;SDS011;9823;50.936;4.046;2022-08-01T06:11:14;22.20;;;9.70;;
19374;SDS011;9823;50.936;4.046;2022-08-01T06:13:42;10.67;;;5.20;;
19374;SDS011;9823;50.936;4.046;2022-08-01T06:16:08;9.83;;;5.23;;
19374;SDS011;9823;50.936;4.046;2022-08-01T06:18:34;16.77;;;7.40;;
19374;SDS011;9823;50.936;4.046;2022-08-01T06:21:02;11.13;;;4.60;;
19374;SDS011;9823;50.936;4.046;2022-08-01T06:23:28;6.23;;;3.97;;
19374;SDS011;9823;50.936;4.046;2022-08-01T06:25:54;37.63;;;13.73;;
19374;SDS011;9823;50.936;4.046;2022-08-01T06:28:21;15.50;;;5.53;;
19374;SDS011;9823;50.936;4.046;2022-08-01T06:30:47;18.20;;;7.40;;
19374;SDS011;9823;50.936;4.046;2022-08-01T06:33:13;24.07;;;8.03;;
19374;SDS011;9823;50.936;4.046;2022-08-01T06:35:41;10.60;;;4.50;;
19374;SDS011;9823;50.936;4.046;2022-08-01T06:38:08;38.07;;;13.83;;
19374;SDS011;9823;50.936;4.046;2022-08-01T06:40:34;19.80;;;7.93;;
19374;SDS011;9823;50.936;4.046;2022-08-01T06:43:00;10.70;;;4.93;;
19374;SDS011;9823;50.936;4.046;2022-08-01T06:45:26;6.23;;;2.90;;
19374;SDS011;9823;50.936;4.046;2022-08-01T06:47:52;6.30;;;3.00;;
19374;SDS011;9823;50.936;4.046;2022-08-01T06:50:18;3.00;;;2.20;;
19374;SDS011;9823;50.936;4.046;2022-08-01T06:52:44;18.90;;;8.87;;
19374;SDS011;9823;50.936;4.046;2022-08-01T06:55:10;10.33;;;4.37;;
19374;SDS011;9823;50.936;4.046;2022-08-01T06:57:39;12.60;;;5.20;;
19374;SDS011;9823;50.936;4.046;2022-08-01T07:00:10;32.07;;;11.93;;
19374;SDS011;9823;50.936;4.046;2022-08-01T07:02:37;10.53;;;4.17;;
19374;SDS011;9823;50.936;4.046;2022-08-01T07:05:04;11.50;;;4.43;;
19374;SDS011;9823;50.936;4.046;2022-08-01T07:07:30;21.97;;;7.70;;
19374;SDS011;9823;50.936;4.046;2022-08-01T07:09:56;19.70;;;7.50;;
19374;SDS011;9823;50.936;4.046;2022-08-01T07:12:22;4.70;;;2.27;;
19374;SDS011;9823;50.936;4.046;2022-08-01T07:14:48;12.43;;;4.00;;
19374;SDS011;9823;50.936;4.046;2022-08-01T07:17:14;12.93;;;4.97;;
19374;SDS011;9823;50.936;4.046;2022-08-01T07:19:40;8.17;;;2.93;;
19374;SDS011;9823;50.936;4.046;2022-08-01T07:22:06;3.57;;;1.90;;
19374;SDS011;9823;50.936;4.046;2022-08-01T07:24:32;7.20;;;2.57;;
19374;SDS011;9823;50.936;4.046;2022-08-01T07:26:58;5.83;;;2.73;;
19374;SDS011;9823;50.936;4.046;2022-08-01T07:29:24;3.07;;;1.80;;
19374;SDS011;9823;50.936;4.046;2022-08-01T07:31:53;4.07;;;2.00;;
19374;SDS011;9823;50.936;4.046;2022-08-01T07:34:20;49.70;;;17.10;;
19374;SDS011;9823;50.936;4.046;2022-08-01T07:36:46;11.30;;;4.33;;
19374;SDS011;9823;50.936;4.046;2022-08-01T07:39:12;28.27;;;10.00;;
19374;SDS011;9823;50.936;4.046;2022-08-01T07:41:38;44.80;;;14.53;;
19374;SDS011;9823;50.936;4.046;2022-08-01T07:44:04;61.53;;;22.97;;
19374;SDS011;9823;50.936;4.046;2022-08-01T07:46:30;28.80;;;9.37;;
19374;SDS011;9823;50.936;4.046;2022-08-01T07:48:56;40.07;;;13.87;;
19374;SDS011;9823;50.936;4.046;2022-08-01T07:51:22;18.87;;;5.00;;
19374;SDS011;9823;50.936;4.046;2022-08-01T07:53:48;15.57;;;5.70;;
19374;SDS011;9823;50.936;4.046;2022-08-01T07:56:14;20.73;;;5.80;;
19374;SDS011;9823;50.936;4.046;2022-08-01T07:58:40;3.80;;;1.80;;
19374;SDS011;9823;50.936;4.046;2022-08-01T08:01:07;6.40;;;2.83;;
19374;SDS011;9823;50.936;4.046;2022-08-01T08:03:33;6.13;;;3.27;;
19374;SDS011;9823;50.936;4.046;2022-08-01T08:05:59;10.00;;;4.40;;
19374;SDS011;9823;50.936;4.046;2022-08-01T08:08:25;29.17;;;12.30;;
19374;SDS011;9823;50.936;4.046;2022-08-01T08:10:51;8.20;;;5.23;;
19374;SDS011;9823;50.936;4.046;2022-08-01T08:13:17;6.87;;;3.93;;
19374;SDS011;9823;50.936;4.046;2022-08-01T08:15:43;12.70;;;6.00;;
19374;SDS011;9823;50.936;4.046;2022-08-01T08:18:09;8.17;;;5.13;;
19374;SDS011;9823;50.936;4.046;2022-08-01T08:20:35;4.27;;;2.30;;
19374;SDS011;9823;50.936;4.046;2022-08-01T08:23:01;4.63;;;2.10;;
19374;SDS011;9823;50.936;4.046;2022-08-01T08:25:47;4.40;;;1.97;;
19374;SDS011;9823;50.936;4.046;2022-08-01T08:28:13;3.27;;;2.20;;
19374;SDS011;9823;50.936;4.046;2022-08-01T08:30:39;5.23;;;2.20;;
19374;SDS011;9823;50.936;4.046;2022-08-01T08:33:05;7.07;;;3.10;;
19374;SDS011;9823;50.936;4.046;2022-08-01T08:35:31;3.90;;;2.17;;
19374;SDS011;9823;50.936;4.046;2022-08-01T08:37:57;4.60;;;3.20;;
19374;SDS011;9823;50.936;4.046;2022-08-01T08:40:23;5.83;;;3.23;;
19374;SDS011;9823;50.936;4.046;2022-08-01T08:42:52;4.67;;;3.53;;
19374;SDS011;9823;50.936;4.046;2022-08-01T08:45:19;6.20;;;3.77;;
19374;SDS011;9823;50.936;4.046;2022-08-01T08:47:52;6.80;;;4.50;;
19374;SDS011;9823;50.936;4.046;2022-08-01T08:50:19;5.00;;;4.30;;
19374;SDS011;9823;50.936;4.046;2022-08-01T08:52:45;5.43;;;4.73;;
19374;SDS011;9823;50.936;4.046;2022-08-01T08:55:13;8.23;;;4.90;;
19374;SDS011;9823;50.936;4.046;2022-08-01T08:57:41;4.40;;;3.83;;
19374;SDS011;9823;50.936;4.046;2022-08-01T09:00:10;9.67;;;4.87;;
19374;SDS011;9823;50.936;4.046;2022-08-01T09:02:40;5.27;;;3.93;;
19374;SDS011;9823;50.936;4.046;2022-08-01T09:05:07;6.63;;;3.93;;
19374;SDS011;9823;50.936;4.046;2022-08-01T09:07:33;27.47;;;11.97;;
19374;SDS011;9823;50.936;4.046;2022-08-01T09:09:59;9.00;;;5.03;;
19374;SDS011;9823;50.936;4.046;2022-08-01T09:12:25;5.43;;;4.47;;
19374;SDS011;9823;50.936;4.046;2022-08-01T09:14:54;20.33;;;10.00;;
19374;SDS011;9823;50.936;4.046;2022-08-01T09:17:20;5.73;;;3.10;;
19374;SDS011;9823;50.936;4.046;2022-08-01T09:19:47;9.07;;;4.63;;
19374;SDS011;9823;50.936;4.046;2022-08-01T09:22:15;4.30;;;3.17;;
19374;SDS011;9823;50.936;4.046;2022-08-01T09:27:26;3.17;;;1.70;;
19374;SDS011;9823;50.936;4.046;2022-08-01T09:29:53;5.77;;;3.00;;
19374;SDS011;9823;50.936;4.046;2022-08-01T09:32:21;2.77;;;1.73;;
19374;SDS011;9823;50.936;4.046;2022-08-01T09:34:47;50.13;;;19.93;;
19374;SDS011;9823;50.936;4.046;2022-08-01T09:37:13;8.93;;;4.70;;
19374;SDS011;9823;50.936;4.046;2022-08-01T09:39:42;3.67;;;1.90;;
19374;SDS011;9823;50.936;4.046;2022-08-01T09:44:47;3.13;;;1.20;;
19374;SDS011;9823;50.936;4.046;2022-08-01T09:47:14;14.20;;;3.27;;
19374;SDS011;9823;50.936;4.046;2022-08-01T09:49:41;19.47;;;6.70;;
19374;SDS011;9823;50.936;4.046;2022-08-01T09:52:14;16.23;;;5.17;;
19374;SDS011;9823;50.936;4.046;2022-08-01T09:54:41;7.93;;;2.83;;
19374;SDS011;9823;50.936;4.046;2022-08-01T09:57:09;2.23;;;1.00;;
19374;SDS011;9823;50.936;4.046;2022-08-01T09:59:38;4.47;;;1.70;;
19374;SDS011;9823;50.936;4.046;2022-08-01T10:02:09;3.40;;;1.27;;
19374;SDS011;9823;50.936;4.046;2022-08-01T10:04:45;3.17;;;1.73;;
19374;SDS011;9823;50.936;4.046;2022-08-01T10:07:11;1.43;;;0.83;;
19374;SDS011;9823;50.936;4.046;2022-08-01T10:09:40;3.33;;;1.00;;
19374;SDS011;9823;50.936;4.046;2022-08-01T10:12:07;2.97;;;1.10;;
19374;SDS011;9823;50.936;4.046;2022-08-01T10:14:36;49.53;;;19.50;;
19374;SDS011;9823;50.936;4.046;2022-08-01T10:17:02;4.20;;;1.50;;
19374;SDS011;9823;50.936;4.046;2022-08-01T10:19:29;4.53;;;1.33;;
19374;SDS011;9823;50.936;4.046;2022-08-01T10:21:57;3.80;;;1.40;;
19374;SDS011;9823;50.936;4.046;2022-08-01T10:24:24;3.20;;;1.30;;
19374;SDS011;9823;50.936;4.046;2022-08-01T10:26:59;1.87;;;1.00;;
19374;SDS011;9823;50.936;4.046;2022-08-01T10:29:29;4.27;;;1.83;;
19374;SDS011;9823;50.936;4.046;2022-08-01T10:31:57;3.33;;;1.07;;
19374;SDS011;9823;50.936;4.046;2022-08-01T10:34:23;6.03;;;1.57;;
19374;SDS011;9823;50.936;4.046;2022-08-01T10:36:50;3.37;;;1.30;;
19374;SDS011;9823;50.936;4.046;2022-08-01T10:39:16;3.77;;;1.20;;
19374;SDS011;9823;50.936;4.046;2022-08-01T10:42:01;3.83;;;1.47;;
19374;SDS011;9823;50.936;4.046;2022-08-01T10:44:28;1.80;;;1.50;;
19374;SDS011;9823;50.936;4.046;2022-08-01T10:47:42;2.37;;;1.40;;
19374;SDS011;9823;50.936;4.046;2022-08-01T10:49:57;2.07;;;1.20;;
19374;SDS011;9823;50.936;4.046;2022-08-01T10:52:30;2.00;;;1.20;;
19374;SDS011;9823;50.936;4.046;2022-08-01T10:55:03;2.40;;;1.40;;
19374;SDS011;9823;50.936;4.046;2022-08-01T10:57:45;4.90;;;2.43;;
19374;SDS011;9823;50.936;4.046;2022-08-01T11:00:18;7.20;;;2.27;;
19374;SDS011;9823;50.936;4.046;2022-08-01T11:02:56;7.23;;;2.10;;
19374;SDS011;9823;50.936;4.046;2022-08-01T11:05:24;10.97;;;3.13;;
19374;SDS011;9823;50.936;4.046;2022-08-01T11:08:09;18.40;;;5.40;;
19374;SDS011;9823;50.936;4.046;2022-08-01T11:10:42;3.87;;;1.90;;
19374;SDS011;9823;50.936;4.046;2022-08-01T11:13:08;4.47;;;2.20;;
19374;SDS011;9823;50.936;4.046;2022-08-01T11:15:36;3.90;;;2.43;;
19374;SDS011;9823;50.936;4.046;2022-08-01T11:18:03;5.20;;;2.50;;
19374;SDS011;9823;50.936;4.046;2022-08-01T11:20:35;3.63;;;2.60;;
19374;SDS011;9823;50.936;4.046;2022-08-01T11:30:43;27.60;;;12.10;;
19374;SDS011;9823;50.936;4.046;2022-08-01T11:33:10;16.60;;;6.83;;
19374;SDS011;9823;50.936;4.046;2022-08-01T11:35:37;5.30;;;3.23;;
19374;SDS011;9823;50.936;4.046;2022-08-01T11:38:23;4.03;;;3.00;;
19374;SDS011;9823;50.936;4.046;2022-08-01T11:41:10;5.53;;;3.47;;
19374;SDS011;9823;50.936;4.046;2022-08-01T11:43:53;3.67;;;2.13;;
19374;SDS011;9823;50.936;4.046;2022-08-01T11:46:38;8.07;;;2.90;;
19374;SDS011;9823;50.936;4.046;2022-08-01T11:54:29;5.57;;;2.10;;
19374;SDS011;9823;50.936;4.046;2022-08-01T11:56:56;3.73;;;2.10;;
19374;SDS011;9823;50.936;4.046;2022-08-01T11:59:25;21.93;;;8.20;;
19374;SDS011;9823;50.936;4.046;2022-08-01T12:01:52;56.57;;;19.27;;
19374;SDS011;9823;50.936;4.046;2022-08-01T12:04:18;31.63;;;10.93;;
19374;SDS011;9823;50.936;4.046;2022-08-01T12:06:44;17.97;;;4.27;;
19374;SDS011;9823;50.936;4.046;2022-08-01T12:09:22;14.93;;;4.47;;
19374;SDS011;9823;50.936;4.046;2022-08-01T12:11:49;24.73;;;8.90;;
19374;SDS011;9823;50.936;4.046;2022-08-01T12:14:19;19.23;;;7.47;;
19374;SDS011;9823;50.936;4.046;2022-08-01T12:16:51;32.10;;;10.67;;
19374;SDS011;9823;50.936;4.046;2022-08-01T12:19:19;7.23;;;2.90;;
19374;SDS011;9823;50.936;4.046;2022-08-01T12:21:45;3.90;;;1.90;;
19374;SDS011;9823;50.936;4.046;2022-08-01T12:24:13;14.47;;;2.47;;
19374;SDS011;9823;50.936;4.046;2022-08-01T12:26:47;3.33;;;1.83;;
19374;SDS011;9823;50.936;4.046;2022-08-01T12:29:58;4.07;;;2.00;;
19374;SDS011;9823;50.936;4.046;2022-08-01T12:34:54;3.47;;;1.90;;
19374;SDS011;9823;50.936;4.046;2022-08-01T12:37:23;16.10;;;6.27;;
19374;SDS011;9823;50.936;4.046;2022-08-01T12:39:51;61.30;;;19.77;;
19374;SDS011;9823;50.936;4.046;2022-08-01T12:42:17;7.53;;;2.97;;
19374;SDS011;9823;50.936;4.046;2022-08-01T12:44:48;2.23;;;1.60;;
19374;SDS011;9823;50.936;4.046;2022-08-01T12:47:16;1.93;;;1.30;;
19374;SDS011;9823;50.936;4.046;2022-08-01T12:49:42;3.73;;;1.47;;
19374;SDS011;9823;50.936;4.046;2022-08-01T12:52:09;2.87;;;1.20;;
19374;SDS011;9823;50.936;4.046;2022-08-01T12:57:23;2.53;;;1.03;;
19374;SDS011;9823;50.936;4.046;2022-08-01T12:59:52;2.57;;;1.30;;
19374;SDS011;9823;50.936;4.046;2022-08-01T13:02:18;17.33;;;5.10;;
19374;SDS011;9823;50.936;4.046;2022-08-01T13:04:51;13.20;;;4.77;;
19374;SDS011;9823;50.936;4.046;2022-08-01T13:07:17;6.33;;;1.80;;
19374;SDS011;9823;50.936;4.046;2022-08-01T13:09:51;11.33;;;4.50;;
19374;SDS011;9823;50.936;4.046;2022-08-01T13:12:17;9.03;;;3.20;;
19374;SDS011;9823;50.936;4.046;2022-08-01T13:14:43;54.13;;;18.37;;
19374;SDS011;9823;50.936;4.046;2022-08-01T13:17:09;17.57;;;5.33;;
19374;SDS011;9823;50.936;4.046;2022-08-01T13:19:44;9.47;;;3.40;;
19374;SDS011;9823;50.936;4.046;2022-08-01T13:22:12;11.33;;;4.60;;
19374;SDS011;9823;50.936;4.046;2022-08-01T13:24:38;22.97;;;7.33;;
19374;SDS011;9823;50.936;4.046;2022-08-01T13:27:04;4.03;;;1.50;;
19374;SDS011;9823;50.936;4.046;2022-08-01T13:29:37;7.87;;;2.40;;
19374;SDS011;9823;50.936;4.046;2022-08-01T13:32:21;2.37;;;1.50;;
19374;SDS011;9823;50.936;4.046;2022-08-01T13:34:48;4.93;;;1.60;;
19374;SDS011;9823;50.936;4.046;2022-08-01T13:37:14;6.87;;;1.77;;
19374;SDS011;9823;50.936;4.046;2022-08-01T13:39:43;7.97;;;2.40;;
19374;SDS011;9823;50.936;4.046;2022-08-01T13:42:11;5.57;;;2.20;;
19374;SDS011;9823;50.936;4.046;2022-08-01T13:44:40;4.70;;;1.80;;
19374;SDS011;9823;50.936;4.046;2022-08-01T13:47:06;8.43;;;3.80;;
19374;SDS011;9823;50.936;4.046;2022-08-01T13:49:32;6.67;;;2.67;;
19374;SDS011;9823;50.936;4.046;2022-08-01T13:51:59;9.00;;;3.23;;
19374;SDS011;9823;50.936;4.046;2022-08-01T13:54:25;7.77;;;3.00;;
19374;SDS011;9823;50.936;4.046;2022-08-01T13:56:52;19.03;;;6.97;;
19374;SDS011;9823;50.936;4.046;2022-08-01T13:59:18;18.87;;;5.80;;
19374;SDS011;9823;50.936;4.046;2022-08-01T14:01:44;23.73;;;5.63;;
19374;SDS011;9823;50.936;4.046;2022-08-01T14:04:15;7.20;;;2.80;;
19374;SDS011;9823;50.936;4.046;2022-08-01T14:06:46;26.47;;;9.63;;
19374;SDS011;9823;50.936;4.046;2022-08-01T14:09:12;11.00;;;4.50;;
19374;SDS011;9823;50.936;4.046;2022-08-01T14:11:41;13.33;;;3.93;;
19374;SDS011;9823;50.936;4.046;2022-08-01T14:14:10;17.90;;;4.73;;
19374;SDS011;9823;50.936;4.046;2022-08-01T14:16:36;7.70;;;2.90;;
19374;SDS011;9823;50.936;4.046;2022-08-01T14:19:02;9.00;;;3.00;;
19374;SDS011;9823;50.936;4.046;2022-08-01T14:21:31;4.30;;;2.00;;
19374;SDS011;9823;50.936;4.046;2022-08-01T14:23:59;3.67;;;1.60;;
19374;SDS011;9823;50.936;4.046;2022-08-01T14:26:25;8.27;;;2.87;;
19374;SDS011;9823;50.936;4.046;2022-08-01T14:28:51;7.63;;;1.67;;
19374;SDS011;9823;50.936;4.046;2022-08-01T14:31:22;30.60;;;10.23;;
19374;SDS011;9823;50.936;4.046;2022-08-01T14:33:50;12.90;;;4.77;;
19374;SDS011;9823;50.936;4.046;2022-08-01T14:36:16;4.60;;;2.60;;
19374;SDS011;9823;50.936;4.046;2022-08-01T14:38:45;8.33;;;3.03;;
19374;SDS011;9823;50.936;4.046;2022-08-01T14:41:20;3.10;;;1.70;;
19374;SDS011;9823;50.936;4.046;2022-08-01T14:43:46;11.80;;;3.90;;
19374;SDS011;9823;50.936;4.046;2022-08-01T14:46:12;5.90;;;1.60;;
19374;SDS011;9823;50.936;4.046;2022-08-01T14:48:41;3.40;;;1.57;;
19374;SDS011;9823;50.936;4.046;2022-08-01T14:51:09;2.60;;;1.37;;
19374;SDS011;9823;50.936;4.046;2022-08-01T14:53:38;3.90;;;1.47;;
19374;SDS011;9823;50.936;4.046;2022-08-01T14:56:06;3.87;;;1.80;;
19374;SDS011;9823;50.936;4.046;2022-08-01T14:58:32;6.53;;;2.17;;
19374;SDS011;9823;50.936;4.046;2022-08-01T15:01:01;18.10;;;5.30;;
19374;SDS011;9823;50.936;4.046;2022-08-01T15:03:29;10.10;;;3.67;;
19374;SDS011;9823;50.936;4.046;2022-08-01T15:05:56;18.03;;;6.30;;
19374;SDS011;9823;50.936;4.046;2022-08-01T15:08:25;15.43;;;4.40;;
19374;SDS011;9823;50.936;4.046;2022-08-01T15:10:51;6.83;;;1.70;;
19374;SDS011;9823;50.936;4.046;2022-08-01T15:13:17;17.97;;;5.13;;
19374;SDS011;9823;50.936;4.046;2022-08-01T15:15:43;32.33;;;10.10;;
19374;SDS011;9823;50.936;4.046;2022-08-01T15:18:09;4.07;;;1.73;;
19374;SDS011;9823;50.936;4.046;2022-08-01T15:20:38;6.60;;;1.37;;
19374;SDS011;9823;50.936;4.046;2022-08-01T15:23:06;3.37;;;1.27;;
19374;SDS011;9823;50.936;4.046;2022-08-01T15:25:33;11.80;;;3.27;;
19374;SDS011;9823;50.936;4.046;2022-08-01T15:27:59;23.43;;;7.03;;
19374;SDS011;9823;50.936;4.046;2022-08-01T15:30:25;21.40;;;6.50;;
19374;SDS011;9823;50.936;4.046;2022-08-01T15:32:51;6.40;;;1.83;;
19374;SDS011;9823;50.936;4.046;2022-08-01T15:35:19;54.73;;;16.03;;